Metar z pełnej godziny Komunikat METAR ze strony awiacja.imgw.pl Metar G00 EPMO METAR EPMO 240500Z 16009KT 6000 BKN024 M04/M05 Q1023 =